• Join FlightAware (Why Join?)
  • Login
  • US Flag 
02:50AM EST


 

Airport Tracker/Info


-or-


 

Live Flight TrackerFlight Track Log ✈ EIA4249 ✈ 02-Aug-2010 ✈ KCHS - KPAE

Flight Track Log - Related Links

Times and Time Zones

All times are in EDT time to prevent confusion due to time zone crossing. See the EIA4249 flight status page for this flight to view local times or setup timezone preferences in your user account.

Time Position Orientation Groundspeed Altitude Reporting Facility
EDT Latitude Longitude Course Direction KTS MPH feet Rate Location/Type
12:00PM 46.4122 -111.0950 288° West 429 494 40,000  Level Salt Lake Center
12:01PM 46.4508 -111.2670 289° West 429 494 40,000  Level Salt Lake Center
12:02PM 46.4894 -111.4330 287° West 424 488 40,000  Level Salt Lake Center
12:03PM 46.5239 -111.5960 289° West 424 488 40,000  Level Salt Lake Center
12:04PM 46.5619 -111.7590 288° West 424 488 40,000  Level Salt Lake Center
12:05PM 46.5978 -111.9230 290° West 424 488 40,000  Level Salt Lake Center
12:06PM 46.6375 -112.0840 289° West 424 488 40,000  Level Salt Lake Center
12:07PM 46.6753 -112.2420 290° West 424 488 40,000  Level Salt Lake Center
12:08PM 46.7144 -112.4000 290° West 424 488 40,000  Level Salt Lake Center
12:09PM 46.7536 -112.5610 290° West 424 488 40,000  Level Salt Lake Center
12:10PM 46.7928 -112.7200 289° West 424 488 40,000  Level Salt Lake Center
12:11PM 46.8314 -112.8820 291° West 424 488 40,000  Level Salt Lake Center
12:12PM 46.8683 -113.0230 289° West 418 481 40,000  Level Salt Lake Center
12:13PM 46.9067 -113.1850 289° West 418 481 40,000  Level Salt Lake Center
12:14PM 46.9447 -113.3450 289° West 418 481 40,000  Level Salt Lake Center
12:15PM 46.9825 -113.5040 289° West 418 481 40,000  Level Salt Lake Center
12:16PM 47.0222 -113.6710 288° West 423 487 40,000  Level Salt Lake Center
12:17PM 47.0594 -113.8370 288° West 428 493 40,000  Level Salt Lake Center
12:18PM 47.0967 -114.0040 289° West 428 493 40,000  Level Salt Lake Center
12:19PM 47.1356 -114.1730 288° West 428 493 40,000  Level Salt Lake Center
12:20PM 47.1719 -114.3400 287° West 428 493 40,000  Level Salt Lake Center
12:21PM 47.2083 -114.5110 288° West 428 493 40,000  Level Salt Lake Center
12:23PM 47.2692 -114.7900 289° West 422 486 40,000  Level Seattle Center
12:24PM 47.3097 -114.9630 287° West 428 493 40,000  Level Seattle Center
12:25PM 47.3456 -115.1320 288° West 436 502 40,000  Level Seattle Center
12:26PM 47.3836 -115.3060 288° West 441 507 40,000  Level Seattle Center
12:27PM 47.4214 -115.4810 286° West 446 513 40,000  Level Seattle Center
12:28PM 47.4547 -115.6560 276° West 451 519 40,000  Level Seattle Center
12:29PM 47.4667 -115.8180 274° West 444 511 40,000  Level Seattle Center
12:30PM 47.4747 -115.9990 276° West 444 511 40,000  Level Seattle Center
12:31PM 47.4867 -116.1820 292° West 444 511 40,000  Level Seattle Center
12:32PM 47.5333 -116.3540 295° West 444 511 40,000  Level Seattle Center
12:33PM 47.5861 -116.5260 294° West 444 511 40,000  Level Seattle Center
12:34PM 47.6364 -116.6960 286° West 461 531 40,000  Level Seattle Center
12:35PM 47.6750 -116.8970 281° West 461 531 40,000  Level Seattle Center
12:36PM 47.6978 -117.0770 280° West 461 531 40,000  Level Seattle Center
12:37PM 47.7186 -117.2610 279° West 461 531 40,000  Level Seattle Center
12:38PM 47.7392 -117.4520 278° West 466 536 40,000  Level Seattle Center
12:39PM 47.7572 -117.6390 279° West 466 536 40,000  Level Seattle Center
12:40PM 47.7772 -117.8260 279° West 466 536 40,000  Level Seattle Center
12:41PM 47.7967 -118.0140 279° West 466 536 40,000  Level Seattle Center
12:42PM 47.8161 -118.1990 278° West 466 536 40,000  Level Seattle Center
12:43PM 47.8350 -118.3900 279° West 466 536 40,000  Level Seattle Center
12:44PM 47.8539 -118.5770 278° West 466 536 40,000  Level Seattle Center
12:45PM 47.8722 -118.7620 277° West 466 536 40,000  Level Seattle Center
12:46PM 47.8883 -118.9510 278° West 466 536 40,000  Level Seattle Center
12:47PM 47.9061 -119.1390 278° West 466 536 40,000  Level Seattle Center
12:48PM 47.9236 -119.3280 277° West 466 536 40,000  Level Seattle Center
12:49PM 47.9386 -119.5130 279° West 466 536 40,000  Level Seattle Center
12:50PM 47.9578 -119.7020 277° West 466 536 40,000 -720 Level Seattle Center
12:51PM 47.9722 -119.8910 277° West 466 536 38,600 -2,280 Descending Seattle Center
12:52PM 47.9864 -120.0740 277° West 461 531 35,500 -3,420 Descending Seattle Center
12:53PM 48.0025 -120.2600 277° West 461 531 31,800 -3,600 Descending Seattle Center
12:54PM 48.0183 -120.4460 278° West 461 531 28,300 -3,300 Descending Seattle Center
12:55PM 48.0339 -120.6230 276° West 454 522 25,300 -3,000 Descending Seattle Center
12:56PM 48.0450 -120.7870 278° West 429 494 22,400 -2,880 Descending Seattle Center
12:57PM 48.0600 -120.9550 276° West 417 480 19,600 -2,820 Descending Seattle Center
12:58PM 48.0711 -121.1070 276° West 400 460 16,800 -2,640 Descending Seattle Center
12:59PM 48.0817 -121.2600 277° West 381 438 14,400 -1,920 Descending Seattle Center
01:00PM 48.0925 -121.3960 277° West 360 414 13,000 -660 Descending Seattle Center
01:01PM 48.1014 -121.5060 276° West 330 380 13,100  Climbing Seattle Center
01:02PM 48.1100 -121.6240 272° West 303 349 13,000 -60 Descending Seattle Center
01:03PM 48.1122 -121.7420 268° West 291 335 13,000 -300 Level Seattle Center
01:04PM 48.1100 -121.8600 273° West 291 335 12,500 -1,140 Descending Seattle Center
01:05PM 48.1142 -121.9780 281° West 291 335 10,800 -1,800 Descending Seattle Center
01:06PM 48.1289 -122.0870 280° West 286 329 9,000 -2,100 Descending Seattle Center
01:07PM 48.1414 -122.1930 281° West 275 316 6,700 -2,100 Descending Seattle Center
01:08PM 48.1539 -122.2900 307° West 264 304 4,800 -1,320 Descending Seattle Center
01:09PM 48.1878 -122.3570 28° Northeast 191 220 4,100 -900 Descending Seattle Center
01:10PM 48.2239 -122.3280 147° Southeast 122 140 3,100 -540 Descending Seattle Center
01:11PM 48.1872 -122.2920 178° South 51 59 3,100 -60 Level Seattle Center
01:12PM 48.1414 -122.2900 217° Southwest 100 115 3,000 -60 Descending Seattle Center
01:13PM 48.1094 -122.3260 335° Northwest 136 157 3,000  Level Seattle Center
01:14PM 48.1503 -122.3550 351° North 77 89 3,000  Level Seattle Center
01:15PM 48.1981 -122.3670 20° North 114 131 3,000  Level Seattle Center
01:16PM 48.2400 -122.3440 121° Southeast 145 167 3,000  Level Seattle Center
01:17PM 48.2144 -122.2810 184° South 101 116 3,000  Level Seattle Center
01:18PM 48.1622 -122.2870 183° South 110 127 3,000  Level Seattle Center
01:19PM 48.1122 -122.2910 178° South 144 166 3,100  Climbing Seattle Center
01:20PM 48.0686 -122.2890 178° South 171 197 3,100 -300 Level Seattle Center
01:21PM 48.0269 -122.2870 182° South 178 205 2,500 -660 Descending Seattle Center
01:22PM 47.9853 -122.2890 178° South 168 193 1,800 -720 Descending Seattle Center
01:23PM 47.9458 -122.2870 178° South 155 178 1,100  Descending Seattle Center
01:24PM 47.9083 -122.2850 189° South 150 173 1,800 900 Climbing Seattle Center
01:25PM 47.8500 -122.2980 261° West 162 186 3,100 540 Climbing Seattle Center
01:26PM 47.8419 -122.3780 315° West 152 175 3,000 -60 Descending Seattle Center
01:27PM 47.8761 -122.4290 359° North 151 174 3,000  Level Seattle Center
01:28PM 47.9303 -122.4310 358° North 135 155 3,000  Level Seattle Center
01:29PM 47.9883 -122.4340 358° North 169 194 3,000  Level Seattle Center
01:30PM 48.0425 -122.4370 North 185 213 3,000  Level Seattle Center
01:31PM 48.1031 -122.4280 28° Northeast 198 228 3,100  Climbing Seattle Center
01:32PM 48.1517 -122.3900 51° Northeast 192 221 3,000 -60 Descending Seattle Center
01:33PM 48.1842 -122.3290 150° Southeast 178 205 3,000  Level Seattle Center
01:34PM 48.1372 -122.2890 181° South 114 131 3,000  Level Seattle Center
01:35PM 48.0853 -122.2900 178° South 123 142 3,000 -120 Level Seattle Center
01:36PM 48.0394 -122.2880 181° South 150 173 2,800 -480 Descending Seattle Center
01:37PM 48.0000 -122.2890 178° South 157 181 2,100 -720 Descending Seattle Center
01:38PM 47.9606 -122.2870 179° South 157 181 1,400 -660 Descending Seattle Center
01:39PM 47.9292 -122.2860 179° South 150 173 800 -600 Descending Seattle Center